Date,TemperatureHighF,TemperatureAvgF,TemperatureLowF,DewpointHighF,DewpointAvgF,DewpointLowF,HumidityHigh,HumidityAvg,HumidityLow,PressureMaxIn,PressureMinIn,WindSpeedMaxMPH,WindSpeedAvgMPH,GustSpeedMaxMPH,PrecipitationSumIn
2013-3-1,42,32,24,27,19,15,80,61,40,29.68,29.23,5,0,5,0.00
2013-3-2,37,33,26,30,22,18,86,67,48,29.71,29.62,14,1,15,0.00
2013-3-3,39,37,35,39,36,30,98,94,80,29.94,29.59,27,3,27,0.00
2013-3-4,41,39,37,39,37,32,98,93,83,30.12,29.94,17,1,17,0.00
2013-3-5,42,38,36,34,33,31,90,84,70,30.03,29.68,3,0,3,0.00
2013-3-6,43,38,35,41,35,31,96,89,68,29.68,29.41,17,1,17,0.00
2013-3-7,40,37,33,39,32,28,98,83,66,29.41,28.91,26,7,26,0.00
2013-3-8,39,37,34,34,29,23,85,74,56,29.44,29.15,23,3,23,0.00
2013-3-9,36,34,32,31,28,23,87,81,60,29.68,29.44,0,0,0,0.00
2013-3-10,44,34,28,25,18,12,68,50,39,30.00,29.85,28,2,28,0.00
2013-3-11,42,34,28,20,13,9,45,42,37,30.06,29.97,17,1,17,0.00
2013-3-12,39,34,31,17,12,8,54,40,30,29.97,29.71,14,1,14,0.00
2013-3-13,38,30,24,24,14,9,74,53,37,29.74,29.47,7,0,7,0.00
2013-3-14,36,29,21,31,21,13,88,71,43,29.47,29.38,15,0,15,0.00
2013-3-15,42,32,25,34,22,15,90,69,46,29.59,29.38,11,0,11,0.00
2013-3-16,40,31,24,26,18,13,77,59,41,29.91,29.59,8,0,8,0.00
2013-3-17,42,33,25,19,14,10,61,46,35,29.97,29.85,17,1,17,0.00
2013-3-18,37,32,26,16,12,6,52,42,34,29.85,29.68,17,1,17,0.00
2013-3-19,36,29,24,12,7,1,48,39,34,29.68,29.65,15,1,15,0.00
2013-3-20,40,30,23,14,5,0,39,35,30,29.83,29.65,26,1,26,0.00
2013-3-21,42,33,23,18,11,4,52,40,33,29.97,29.83,15,0,15,0.00
2013-3-22,43,37,34,28,23,14,73,57,43,29.88,29.62,0,0,10,0.00
2013-3-23,44,36,30,32,26,20,94,69,42,29.65,29.50,0,0,0,0.00
2013-3-24,34,32,27,33,26,9,97,79,46,29.50,29.35,230,0,230,0.00
2013-3-25,30,23,15,14,4,-3,54,43,35,29.68,29.38,0,0,0,0.00
2013-3-26,35,22,10,10,2,-6,58,42,30,29.91,29.68,0,0,0,0.00
2013-3-27,37,34,22,33,26,14,89,74,60,29.91,29.77,13,0,13,0.00
2013-3-28,38,37,35,37,34,32,97,91,85,29.77,29.38,22,4,22,0.00
2013-3-29,49,37,33,40,34,26,97,91,45,29.56,29.41,0,0,0,0.00
2013-3-30,52,43,35,31,27,24,73,55,40,29.94,29.88,11,0,11,0.00
2013-3-31,42,35,29,32,27,24,88,74,50,29.97,29.91,0,0,0,0.00